sensor_id;sensor_type;location;lat;lon;timestamp;pressure;altitude;pressure_sealevel;temperature;humidity
39954;BME280;25631;51.516;-0.470;2023-04-29T00:01:52;101573.39;;;11.63;36.20
39954;BME280;25631;51.516;-0.470;2023-04-29T00:04:28;101572.69;;;11.30;36.21
39954;BME280;25631;51.516;-0.470;2023-04-29T00:07:05;101573.49;;;11.59;36.19
39954;BME280;25631;51.516;-0.470;2023-04-29T00:09:42;101575.12;;;11.45;36.11
39954;BME280;25631;51.516;-0.470;2023-04-29T00:12:18;101573.79;;;11.90;36.18
39954;BME280;25631;51.516;-0.470;2023-04-29T00:14:55;101573.60;;;11.42;36.21
39954;BME280;25631;51.516;-0.470;2023-04-29T00:17:36;101575.65;;;11.17;36.20
39954;BME280;25631;51.516;-0.470;2023-04-29T00:20:13;101581.31;;;11.44;36.21
39954;BME280;25631;51.516;-0.470;2023-04-29T00:22:49;101582.95;;;11.23;36.21
39954;BME280;25631;51.516;-0.470;2023-04-29T00:25:26;101584.97;;;11.36;36.23
39954;BME280;25631;51.516;-0.470;2023-04-29T00:28:02;101582.70;;;11.18;36.25
39954;BME280;25631;51.516;-0.470;2023-04-29T00:30:39;101584.73;;;11.42;36.29
39954;BME280;25631;51.516;-0.470;2023-04-29T00:33:16;101583.76;;;11.28;36.31
39954;BME280;25631;51.516;-0.470;2023-04-29T00:35:52;101584.92;;;11.28;36.33
39954;BME280;25631;51.516;-0.470;2023-04-29T00:38:29;101584.34;;;10.83;36.30
39954;BME280;25631;51.516;-0.470;2023-04-29T00:41:06;101584.32;;;11.35;36.36
39954;BME280;25631;51.516;-0.470;2023-04-29T00:43:42;101587.67;;;11.17;36.38
39954;BME280;25631;51.516;-0.470;2023-04-29T00:46:18;101590.72;;;11.04;36.40
39954;BME280;25631;51.516;-0.470;2023-04-29T00:48:55;101593.63;;;11.05;36.38
39954;BME280;25631;51.516;-0.470;2023-04-29T00:51:32;101594.28;;;10.88;36.42
39954;BME280;25631;51.516;-0.470;2023-04-29T00:54:09;101596.71;;;10.88;36.46
39954;BME280;25631;51.516;-0.470;2023-04-29T00:56:46;101596.74;;;10.81;36.60
39954;BME280;25631;51.516;-0.470;2023-04-29T00:59:28;101598.27;;;10.70;36.77
39954;BME280;25631;51.516;-0.470;2023-04-29T01:02:05;101598.50;;;10.65;36.85
39954;BME280;25631;51.516;-0.470;2023-04-29T01:04:42;101597.89;;;10.62;36.86
39954;BME280;25631;51.516;-0.470;2023-04-29T01:07:25;101595.55;;;10.61;36.95
39954;BME280;25631;51.516;-0.470;2023-04-29T01:10:09;101594.25;;;10.42;37.08
39954;BME280;25631;51.516;-0.470;2023-04-29T01:12:52;101600.17;;;10.46;37.15
39954;BME280;25631;51.516;-0.470;2023-04-29T01:15:38;101598.96;;;10.42;37.19
39954;BME280;25631;51.516;-0.470;2023-04-29T01:18:25;101597.40;;;10.31;37.19
39954;BME280;25631;51.516;-0.470;2023-04-29T01:21:03;101595.85;;;10.38;37.21
39954;BME280;25631;51.516;-0.470;2023-04-29T01:23:40;101596.02;;;10.33;37.27
39954;BME280;25631;51.516;-0.470;2023-04-29T01:26:16;101596.30;;;10.31;37.25
39954;BME280;25631;51.516;-0.470;2023-04-29T01:29:17;101598.64;;;10.37;37.18
39954;BME280;25631;51.516;-0.470;2023-04-29T01:32:04;101601.03;;;10.28;37.23
39954;BME280;25631;51.516;-0.470;2023-04-29T01:34:46;101603.63;;;10.05;37.32
39954;BME280;25631;51.516;-0.470;2023-04-29T01:37:37;101608.05;;;10.09;37.39
39954;BME280;25631;51.516;-0.470;2023-04-29T01:40:21;101605.74;;;10.05;37.42
39954;BME280;25631;51.516;-0.470;2023-04-29T01:43:00;101606.38;;;10.26;37.41
39954;BME280;25631;51.516;-0.470;2023-04-29T01:45:38;101604.86;;;10.04;37.49
39954;BME280;25631;51.516;-0.470;2023-04-29T01:48:15;101604.99;;;10.05;37.48
39954;BME280;25631;51.516;-0.470;2023-04-29T01:50:52;101609.77;;;10.02;37.47
39954;BME280;25631;51.516;-0.470;2023-04-29T01:53:28;101609.93;;;10.07;37.39
39954;BME280;25631;51.516;-0.470;2023-04-29T01:56:05;101609.26;;;9.75;37.39
39954;BME280;25631;51.516;-0.470;2023-04-29T01:58:42;101612.94;;;9.58;37.25
39954;BME280;25631;51.516;-0.470;2023-04-29T02:01:18;101616.31;;;9.81;37.22
39954;BME280;25631;51.516;-0.470;2023-04-29T02:03:55;101615.85;;;9.72;37.29
39954;BME280;25631;51.516;-0.470;2023-04-29T02:06:31;101619.26;;;9.83;37.42
39954;BME280;25631;51.516;-0.470;2023-04-29T02:09:08;101624.42;;;9.80;37.46
39954;BME280;25631;51.516;-0.470;2023-04-29T02:11:44;101622.07;;;9.73;37.52
39954;BME280;25631;51.516;-0.470;2023-04-29T02:14:20;101625.63;;;9.50;37.55
39954;BME280;25631;51.516;-0.470;2023-04-29T02:16:57;101624.10;;;9.62;37.46
39954;BME280;25631;51.516;-0.470;2023-04-29T02:19:34;101623.73;;;9.49;37.29
39954;BME280;25631;51.516;-0.470;2023-04-29T02:22:10;101623.59;;;9.52;37.27
39954;BME280;25631;51.516;-0.470;2023-04-29T02:24:46;101623.01;;;9.94;37.31
39954;BME280;25631;51.516;-0.470;2023-04-29T02:27:23;101622.47;;;9.56;37.36
39954;BME280;25631;51.516;-0.470;2023-04-29T02:29:59;101621.67;;;9.64;37.37
39954;BME280;25631;51.516;-0.470;2023-04-29T02:32:36;101629.84;;;9.53;37.47
39954;BME280;25631;51.516;-0.470;2023-04-29T02:35:12;101632.05;;;9.29;37.55
39954;BME280;25631;51.516;-0.470;2023-04-29T02:37:49;101634.26;;;9.47;37.63
39954;BME280;25631;51.516;-0.470;2023-04-29T02:40:25;101636.26;;;9.46;37.66
39954;BME280;25631;51.516;-0.470;2023-04-29T02:43:02;101632.88;;;9.43;37.66
39954;BME280;25631;51.516;-0.470;2023-04-29T02:45:39;101634.23;;;9.08;37.74
39954;BME280;25631;51.516;-0.470;2023-04-29T02:48:15;101634.81;;;9.05;37.73
39954;BME280;25631;51.516;-0.470;2023-04-29T02:50:51;101636.69;;;8.93;37.77
39954;BME280;25631;51.516;-0.470;2023-04-29T02:53:28;101640.10;;;9.13;37.83
39954;BME280;25631;51.516;-0.470;2023-04-29T02:56:04;101642.13;;;9.34;37.80
39954;BME280;25631;51.516;-0.470;2023-04-29T02:58:41;101646.21;;;9.07;37.67
39954;BME280;25631;51.516;-0.470;2023-04-29T03:01:17;101644.77;;;9.26;37.70
39954;BME280;25631;51.516;-0.470;2023-04-29T03:03:53;101641.84;;;8.82;37.77
39954;BME280;25631;51.516;-0.470;2023-04-29T03:06:31;101643.89;;;8.92;37.76
39954;BME280;25631;51.516;-0.470;2023-04-29T03:09:08;101647.42;;;9.14;37.73
39954;BME280;25631;51.516;-0.470;2023-04-29T03:11:44;101646.86;;;8.76;37.64
39954;BME280;25631;51.516;-0.470;2023-04-29T03:14:20;101646.76;;;9.09;37.56
39954;BME280;25631;51.516;-0.470;2023-04-29T03:16:57;101645.33;;;8.98;37.63
39954;BME280;25631;51.516;-0.470;2023-04-29T03:19:33;101644.79;;;8.81;37.70
39954;BME280;25631;51.516;-0.470;2023-04-29T03:22:10;101646.10;;;8.83;37.82
39954;BME280;25631;51.516;-0.470;2023-04-29T03:24:46;101645.93;;;8.65;37.82
39954;BME280;25631;51.516;-0.470;2023-04-29T03:27:23;101645.64;;;8.79;37.82
39954;BME280;25631;51.516;-0.470;2023-04-29T03:29:59;101641.07;;;8.98;37.79
39954;BME280;25631;51.516;-0.470;2023-04-29T03:32:36;101642.37;;;8.64;37.79
39954;BME280;25631;51.516;-0.470;2023-04-29T03:35:12;101646.70;;;8.81;37.81
39954;BME280;25631;51.516;-0.470;2023-04-29T03:37:49;101649.22;;;9.15;37.80
39954;BME280;25631;51.516;-0.470;2023-04-29T03:40:25;101649.46;;;8.79;37.77
39954;BME280;25631;51.516;-0.470;2023-04-29T03:43:01;101647.19;;;8.75;37.73
39954;BME280;25631;51.516;-0.470;2023-04-29T03:45:38;101646.30;;;8.60;37.74
39954;BME280;25631;51.516;-0.470;2023-04-29T03:48:15;101647.40;;;8.58;37.78
39954;BME280;25631;51.516;-0.470;2023-04-29T03:50:51;101646.25;;;8.77;37.72
39954;BME280;25631;51.516;-0.470;2023-04-29T03:53:28;101648.42;;;8.43;37.74
39954;BME280;25631;51.516;-0.470;2023-04-29T03:56:05;101649.94;;;8.57;37.85
39954;BME280;25631;51.516;-0.470;2023-04-29T03:58:41;101645.93;;;8.38;37.79
39954;BME280;25631;51.516;-0.470;2023-04-29T04:01:18;101645.89;;;8.63;37.81
39954;BME280;25631;51.516;-0.470;2023-04-29T04:03:54;101648.38;;;8.38;37.83
39954;BME280;25631;51.516;-0.470;2023-04-29T04:06:31;101649.14;;;8.40;37.82
39954;BME280;25631;51.516;-0.470;2023-04-29T04:09:07;101648.71;;;8.34;37.95
39954;BME280;25631;51.516;-0.470;2023-04-29T04:11:44;101650.37;;;8.33;37.94
39954;BME280;25631;51.516;-0.470;2023-04-29T04:14:21;101652.04;;;8.47;37.90
39954;BME280;25631;51.516;-0.470;2023-04-29T04:16:57;101654.92;;;8.24;37.94
39954;BME280;25631;51.516;-0.470;2023-04-29T04:19:33;101654.98;;;8.40;37.97
39954;BME280;25631;51.516;-0.470;2023-04-29T04:22:10;101659.67;;;8.12;37.96
39954;BME280;25631;51.516;-0.470;2023-04-29T04:24:46;101661.96;;;8.37;38.00
39954;BME280;25631;51.516;-0.470;2023-04-29T04:27:22;101666.72;;;8.40;38.06
39954;BME280;25631;51.516;-0.470;2023-04-29T04:29:59;101668.37;;;8.13;38.14
39954;BME280;25631;51.516;-0.470;2023-04-29T04:32:40;101668.83;;;8.28;38.11
39954;BME280;25631;51.516;-0.470;2023-04-29T04:35:17;101668.66;;;8.25;38.03
39954;BME280;25631;51.516;-0.470;2023-04-29T04:37:53;101678.32;;;8.46;38.08
39954;BME280;25631;51.516;-0.470;2023-04-29T04:40:30;101685.88;;;8.34;38.13
39954;BME280;25631;51.516;-0.470;2023-04-29T04:43:06;101695.77;;;8.04;38.03
39954;BME280;25631;51.516;-0.470;2023-04-29T04:45:42;101702.91;;;8.21;37.86
39954;BME280;25631;51.516;-0.470;2023-04-29T04:48:19;101704.21;;;8.15;38.02
39954;BME280;25631;51.516;-0.470;2023-04-29T04:50:55;101710.37;;;7.92;38.18
39954;BME280;25631;51.516;-0.470;2023-04-29T04:53:32;101716.25;;;8.05;38.36
39954;BME280;25631;51.516;-0.470;2023-04-29T04:56:08;101720.47;;;7.79;38.54
39954;BME280;25631;51.516;-0.470;2023-04-29T04:58:45;101721.68;;;7.88;38.68
39954;BME280;25631;51.516;-0.470;2023-04-29T05:01:21;101724.69;;;8.04;38.72
39954;BME280;25631;51.516;-0.470;2023-04-29T05:03:57;101729.21;;;7.95;38.73
39954;BME280;25631;51.516;-0.470;2023-04-29T05:06:34;101732.43;;;8.17;38.70
39954;BME280;25631;51.516;-0.470;2023-04-29T05:09:10;101737.98;;;8.21;38.72
39954;BME280;25631;51.516;-0.470;2023-04-29T05:11:47;101746.40;;;8.17;38.79
39954;BME280;25631;51.516;-0.470;2023-04-29T05:14:24;101746.57;;;7.90;38.77
39954;BME280;25631;51.516;-0.470;2023-04-29T05:17:00;101740.24;;;8.24;38.79
39954;BME280;25631;51.516;-0.470;2023-04-29T05:19:39;101741.72;;;8.34;38.82
39954;BME280;25631;51.516;-0.470;2023-04-29T05:22:15;101741.68;;;8.23;38.86
39954;BME280;25631;51.516;-0.470;2023-04-29T05:24:51;101743.45;;;8.42;38.85
39954;BME280;25631;51.516;-0.470;2023-04-29T05:27:28;101749.09;;;8.25;38.83
39954;BME280;25631;51.516;-0.470;2023-04-29T05:30:05;101750.62;;;8.32;38.90
39954;BME280;25631;51.516;-0.470;2023-04-29T05:32:42;101753.89;;;8.15;38.95
39954;BME280;25631;51.516;-0.470;2023-04-29T05:35:19;101757.25;;;8.44;38.90
39954;BME280;25631;51.516;-0.470;2023-04-29T05:37:55;101755.89;;;8.24;38.76
39954;BME280;25631;51.516;-0.470;2023-04-29T05:40:31;101752.47;;;8.01;38.72
39954;BME280;25631;51.516;-0.470;2023-04-29T05:43:08;101755.90;;;8.18;38.66
39954;BME280;25631;51.516;-0.470;2023-04-29T05:45:46;101756.52;;;8.32;38.69
39954;BME280;25631;51.516;-0.470;2023-04-29T05:48:23;101756.26;;;8.29;38.74
39954;BME280;25631;51.516;-0.470;2023-04-29T05:50:59;101755.27;;;8.33;38.78
39954;BME280;25631;51.516;-0.470;2023-04-29T05:53:35;101756.38;;;8.39;38.88
39954;BME280;25631;51.516;-0.470;2023-04-29T05:56:12;101759.15;;;8.64;39.00
39954;BME280;25631;51.516;-0.470;2023-04-29T05:58:48;101760.84;;;8.57;39.04
39954;BME280;25631;51.516;-0.470;2023-04-29T06:01:25;101759.68;;;8.16;39.10
39954;BME280;25631;51.516;-0.470;2023-04-29T06:04:01;101757.09;;;8.72;38.97
39954;BME280;25631;51.516;-0.470;2023-04-29T06:06:37;101757.31;;;8.66;38.94
39954;BME280;25631;51.516;-0.470;2023-04-29T06:09:14;101757.82;;;8.95;38.99
39954;BME280;25631;51.516;-0.470;2023-04-29T06:11:50;101762.76;;;9.07;39.00
39954;BME280;25631;51.516;-0.470;2023-04-29T06:14:27;101764.67;;;9.40;38.90
39954;BME280;25631;51.516;-0.470;2023-04-29T06:17:03;101760.89;;;9.39;38.82
39954;BME280;25631;51.516;-0.470;2023-04-29T06:19:39;101759.47;;;9.27;38.70
39954;BME280;25631;51.516;-0.470;2023-04-29T06:22:16;101764.19;;;9.62;38.60
39954;BME280;25631;51.516;-0.470;2023-04-29T06:24:52;101766.92;;;9.73;38.60
39954;BME280;25631;51.516;-0.470;2023-04-29T06:27:29;101770.57;;;9.84;38.65
39954;BME280;25631;51.516;-0.470;2023-04-29T06:30:06;101774.54;;;9.58;38.69
39954;BME280;25631;51.516;-0.470;2023-04-29T06:32:43;101769.72;;;9.61;38.60
39954;BME280;25631;51.516;-0.470;2023-04-29T06:35:19;101766.94;;;9.74;38.57
39954;BME280;25631;51.516;-0.470;2023-04-29T06:37:56;101772.19;;;9.50;38.52
39954;BME280;25631;51.516;-0.470;2023-04-29T06:40:33;101774.40;;;9.47;38.54
39954;BME280;25631;51.516;-0.470;2023-04-29T06:43:10;101777.54;;;9.73;38.60
39954;BME280;25631;51.516;-0.470;2023-04-29T06:45:46;101786.75;;;10.25;38.59
39954;BME280;25631;51.516;-0.470;2023-04-29T06:48:22;101792.00;;;9.71;38.63
39954;BME280;25631;51.516;-0.470;2023-04-29T06:50:59;101794.30;;;9.65;38.61
39954;BME280;25631;51.516;-0.470;2023-04-29T06:53:35;101795.15;;;9.62;38.73
39954;BME280;25631;51.516;-0.470;2023-04-29T06:56:12;101797.78;;;9.73;38.79
39954;BME280;25631;51.516;-0.470;2023-04-29T06:58:48;101801.48;;;9.79;38.78
39954;BME280;25631;51.516;-0.470;2023-04-29T07:01:25;101803.69;;;9.64;38.72
39954;BME280;25631;51.516;-0.470;2023-04-29T07:04:02;101806.11;;;9.66;38.77
39954;BME280;25631;51.516;-0.470;2023-04-29T07:06:38;101810.53;;;9.53;39.01
39954;BME280;25631;51.516;-0.470;2023-04-29T07:09:15;101811.15;;;9.53;39.15
39954;BME280;25631;51.516;-0.470;2023-04-29T07:11:52;101813.80;;;10.02;39.28
39954;BME280;25631;51.516;-0.470;2023-04-29T07:14:29;101819.79;;;9.84;39.43
39954;BME280;25631;51.516;-0.470;2023-04-29T07:17:05;101829.75;;;9.60;39.59
39954;BME280;25631;51.516;-0.470;2023-04-29T07:19:42;101833.67;;;9.98;39.60
39954;BME280;25631;51.516;-0.470;2023-04-29T07:22:19;101836.83;;;9.71;39.53
39954;BME280;25631;51.516;-0.470;2023-04-29T07:24:56;101838.55;;;10.03;39.35
39954;BME280;25631;51.516;-0.470;2023-04-29T07:27:34;101835.95;;;9.99;39.28
39954;BME280;25631;51.516;-0.470;2023-04-29T07:30:10;101836.39;;;10.03;39.17
39954;BME280;25631;51.516;-0.470;2023-04-29T07:32:47;101837.09;;;9.90;39.17
39954;BME280;25631;51.516;-0.470;2023-04-29T07:35:24;101837.76;;;10.01;39.13
39954;BME280;25631;51.516;-0.470;2023-04-29T07:38:00;101838.76;;;9.99;39.03
39954;BME280;25631;51.516;-0.470;2023-04-29T07:40:36;101841.33;;;10.07;38.85
39954;BME280;25631;51.516;-0.470;2023-04-29T07:43:13;101844.20;;;10.24;38.83
39954;BME280;25631;51.516;-0.470;2023-04-29T07:45:49;101844.84;;;10.45;38.73
39954;BME280;25631;51.516;-0.470;2023-04-29T07:48:26;101848.42;;;10.55;38.55
39954;BME280;25631;51.516;-0.470;2023-04-29T07:51:03;101851.48;;;10.62;38.41
39954;BME280;25631;51.516;-0.470;2023-04-29T07:53:40;101850.64;;;10.77;38.30
39954;BME280;25631;51.516;-0.470;2023-04-29T07:56:16;101852.52;;;10.70;38.20
39954;BME280;25631;51.516;-0.470;2023-04-29T07:58:53;101852.32;;;10.65;38.09
39954;BME280;25631;51.516;-0.470;2023-04-29T08:01:29;101852.94;;;11.04;38.12
39954;BME280;25631;51.516;-0.470;2023-04-29T08:04:06;101853.20;;;11.06;38.08
39954;BME280;25631;51.516;-0.470;2023-04-29T08:06:42;101851.16;;;10.84;38.08
39954;BME280;25631;51.516;-0.470;2023-04-29T08:09:19;101849.60;;;11.04;37.95
39954;BME280;25631;51.516;-0.470;2023-04-29T08:11:55;101848.58;;;10.90;37.91
39954;BME280;25631;51.516;-0.470;2023-04-29T08:14:31;101845.77;;;11.04;38.05
39954;BME280;25631;51.516;-0.470;2023-04-29T08:17:08;101844.56;;;11.01;38.13
39954;BME280;25631;51.516;-0.470;2023-04-29T08:19:44;101846.01;;;10.85;38.10
39954;BME280;25631;51.516;-0.470;2023-04-29T08:22:21;101843.29;;;11.16;37.98
39954;BME280;25631;51.516;-0.470;2023-04-29T08:24:57;101844.77;;;10.77;37.71
39954;BME280;25631;51.516;-0.470;2023-04-29T08:27:34;101846.93;;;11.28;37.69
39954;BME280;25631;51.516;-0.470;2023-04-29T08:30:11;101846.91;;;11.09;37.74
39954;BME280;25631;51.516;-0.470;2023-04-29T08:32:47;101849.90;;;11.07;37.50
39954;BME280;25631;51.516;-0.470;2023-04-29T08:35:24;101850.90;;;11.28;37.43
39954;BME280;25631;51.516;-0.470;2023-04-29T08:38:01;101851.05;;;11.65;37.34
39954;BME280;25631;51.516;-0.470;2023-04-29T08:40:41;101852.05;;;11.30;37.39
39954;BME280;25631;51.516;-0.470;2023-04-29T08:43:19;101851.78;;;11.28;37.38
39954;BME280;25631;51.516;-0.470;2023-04-29T08:45:57;101853.27;;;11.12;37.40
39954;BME280;25631;51.516;-0.470;2023-04-29T08:48:36;101852.00;;;11.44;37.28
39954;BME280;25631;51.516;-0.470;2023-04-29T08:51:12;101849.21;;;11.57;36.97
39954;BME280;25631;51.516;-0.470;2023-04-29T08:53:49;101857.47;;;11.30;37.00
39954;BME280;25631;51.516;-0.470;2023-04-29T08:56:25;101856.05;;;11.52;37.14
39954;BME280;25631;51.516;-0.470;2023-04-29T08:59:03;101856.68;;;11.58;36.94
39954;BME280;25631;51.516;-0.470;2023-04-29T09:01:43;101858.18;;;12.08;36.61
39954;BME280;25631;51.516;-0.470;2023-04-29T09:04:29;101864.30;;;11.86;35.89
39954;BME280;25631;51.516;-0.470;2023-04-29T09:07:10;101869.79;;;12.26;35.83
39954;BME280;25631;51.516;-0.470;2023-04-29T09:09:47;101872.08;;;12.08;35.65
39954;BME280;25631;51.516;-0.470;2023-04-29T09:12:24;101876.32;;;12.06;35.19
39954;BME280;25631;51.516;-0.470;2023-04-29T09:15:01;101879.55;;;12.29;35.15
39954;BME280;25631;51.516;-0.470;2023-04-29T09:17:40;101881.86;;;12.16;35.11
39954;BME280;25631;51.516;-0.470;2023-04-29T09:20:33;101878.83;;;12.39;34.89
39954;BME280;25631;51.516;-0.470;2023-04-29T09:23:09;101881.79;;;12.95;34.71
39954;BME280;25631;51.516;-0.470;2023-04-29T09:25:55;101886.02;;;12.59;34.14
39954;BME280;25631;51.516;-0.470;2023-04-29T09:28:31;101884.78;;;13.10;33.90
39954;BME280;25631;51.516;-0.470;2023-04-29T09:31:08;101886.46;;;12.80;33.22
39954;BME280;25631;51.516;-0.470;2023-04-29T09:33:54;101888.77;;;12.56;32.90
39954;BME280;25631;51.516;-0.470;2023-04-29T09:36:40;101890.30;;;12.67;32.94
39954;BME280;25631;51.516;-0.470;2023-04-29T09:39:18;101891.49;;;12.77;33.17
39954;BME280;25631;51.516;-0.470;2023-04-29T09:41:59;101895.44;;;12.83;33.19
39954;BME280;25631;51.516;-0.470;2023-04-29T09:44:40;101894.26;;;13.12;33.10
39954;BME280;25631;51.516;-0.470;2023-04-29T09:47:16;101891.85;;;13.21;32.92
39954;BME280;25631;51.516;-0.470;2023-04-29T09:50:12;101896.49;;;13.16;32.74
39954;BME280;25631;51.516;-0.470;2023-04-29T09:52:49;101891.63;;;13.37;32.71
39954;BME280;25631;51.516;-0.470;2023-04-29T09:55:25;101890.62;;;13.30;32.54
39954;BME280;25631;51.516;-0.470;2023-04-29T09:58:02;101891.51;;;13.26;32.54
39954;BME280;25631;51.516;-0.470;2023-04-29T10:00:38;101888.88;;;13.34;32.34
39954;BME280;25631;51.516;-0.470;2023-04-29T10:03:15;101886.76;;;13.73;32.26
39954;BME280;25631;51.516;-0.470;2023-04-29T10:05:51;101886.12;;;13.73;31.97
39954;BME280;25631;51.516;-0.470;2023-04-29T10:08:29;101887.68;;;13.42;31.94
39954;BME280;25631;51.516;-0.470;2023-04-29T10:11:05;101883.75;;;13.75;31.95
39954;BME280;25631;51.516;-0.470;2023-04-29T10:13:42;101885.66;;;13.84;31.72
39954;BME280;25631;51.516;-0.470;2023-04-29T10:16:27;101887.27;;;13.58;31.52
39954;BME280;25631;51.516;-0.470;2023-04-29T10:19:05;101888.37;;;13.79;31.46
39954;BME280;25631;51.516;-0.470;2023-04-29T10:21:43;101890.54;;;13.89;31.15
39954;BME280;25631;51.516;-0.470;2023-04-29T10:24:21;101888.50;;;13.51;31.09
39954;BME280;25631;51.516;-0.470;2023-04-29T10:26:58;101889.08;;;13.90;31.03
39954;BME280;25631;51.516;-0.470;2023-04-29T10:29:36;101886.63;;;13.65;30.84
39954;BME280;25631;51.516;-0.470;2023-04-29T10:32:14;101882.70;;;13.36;31.22
39954;BME280;25631;51.516;-0.470;2023-04-29T10:34:52;101884.45;;;13.69;31.32
39954;BME280;25631;51.516;-0.470;2023-04-29T10:37:29;101891.71;;;14.04;31.38
39954;BME280;25631;51.516;-0.470;2023-04-29T10:40:13;101894.87;;;14.40;30.95
39954;BME280;25631;51.516;-0.470;2023-04-29T10:42:51;101892.92;;;14.31;30.65
39954;BME280;25631;51.516;-0.470;2023-04-29T10:45:29;101886.10;;;14.20;30.63
39954;BME280;25631;51.516;-0.470;2023-04-29T10:48:10;101882.66;;;14.33;30.45
39954;BME280;25631;51.516;-0.470;2023-04-29T10:51:03;101879.17;;;14.39;30.43
39954;BME280;25631;51.516;-0.470;2023-04-29T10:54:13;101876.70;;;14.46;30.56
39954;BME280;25631;51.516;-0.470;2023-04-29T10:56:51;101871.70;;;14.69;30.59
39954;BME280;25631;51.516;-0.470;2023-04-29T10:59:44;101868.48;;;14.66;30.49
39954;BME280;25631;51.516;-0.470;2023-04-29T11:02:21;101869.93;;;15.03;30.55
39954;BME280;25631;51.516;-0.470;2023-04-29T11:05:13;101869.92;;;14.98;30.58
39954;BME280;25631;51.516;-0.470;2023-04-29T11:08:08;101876.56;;;15.14;30.60
39954;BME280;25631;51.516;-0.470;2023-04-29T11:10:44;101877.06;;;15.17;30.41
39954;BME280;25631;51.516;-0.470;2023-04-29T11:13:21;101876.35;;;15.10;30.10
39954;BME280;25631;51.516;-0.470;2023-04-29T11:16:03;101877.93;;;15.18;30.01
39954;BME280;25631;51.516;-0.470;2023-04-29T11:19:04;101879.61;;;15.11;29.93
39954;BME280;25631;51.516;-0.470;2023-04-29T11:21:41;101881.39;;;15.40;30.22
39954;BME280;25631;51.516;-0.470;2023-04-29T11:24:19;101875.11;;;15.39;29.68
39954;BME280;25631;51.516;-0.470;2023-04-29T11:26:59;101875.70;;;15.46;29.94
39954;BME280;25631;51.516;-0.470;2023-04-29T11:29:36;101874.41;;;15.29;29.28
39954;BME280;25631;51.516;-0.470;2023-04-29T11:32:13;101874.26;;;15.52;29.48
39954;BME280;25631;51.516;-0.470;2023-04-29T11:34:50;101871.21;;;15.92;29.50
39954;BME280;25631;51.516;-0.470;2023-04-29T11:37:27;101872.18;;;15.95;29.44
39954;BME280;25631;51.516;-0.470;2023-04-29T11:40:05;101874.03;;;15.83;29.40
39954;BME280;25631;51.516;-0.470;2023-04-29T11:42:43;101868.10;;;15.97;29.06
39954;BME280;25631;51.516;-0.470;2023-04-29T11:45:20;101867.55;;;16.04;29.10
39954;BME280;25631;51.516;-0.470;2023-04-29T11:47:56;101868.85;;;16.25;28.83
39954;BME280;25631;51.516;-0.470;2023-04-29T11:50:33;101866.87;;;16.20;28.63
39954;BME280;25631;51.516;-0.470;2023-04-29T11:53:09;101864.50;;;15.91;28.63
39954;BME280;25631;51.516;-0.470;2023-04-29T11:55:45;101865.02;;;16.08;28.47
39954;BME280;25631;51.516;-0.470;2023-04-29T11:58:23;101863.59;;;15.95;28.84
39954;BME280;25631;51.516;-0.470;2023-04-29T12:01:00;101862.76;;;15.86;28.53
39954;BME280;25631;51.516;-0.470;2023-04-29T12:03:37;101858.02;;;16.13;29.06
39954;BME280;25631;51.516;-0.470;2023-04-29T12:06:14;101858.34;;;16.27;28.80
39954;BME280;25631;51.516;-0.470;2023-04-29T12:08:50;101857.59;;;16.70;28.78
39954;BME280;25631;51.516;-0.470;2023-04-29T12:11:27;101858.31;;;16.80;27.97
39954;BME280;25631;51.516;-0.470;2023-04-29T12:14:03;101858.43;;;16.78;27.51
39954;BME280;25631;51.516;-0.470;2023-04-29T12:16:40;101854.40;;;16.95;27.22
39954;BME280;25631;51.516;-0.470;2023-04-29T12:19:17;101849.61;;;17.05;27.31
39954;BME280;25631;51.516;-0.470;2023-04-29T12:21:53;101843.76;;;17.13;27.48
39954;BME280;25631;51.516;-0.470;2023-04-29T12:24:34;101843.58;;;17.51;27.38
39954;BME280;25631;51.516;-0.470;2023-04-29T12:27:11;101846.38;;;17.18;26.70
39954;BME280;25631;51.516;-0.470;2023-04-29T12:29:48;101852.47;;;17.74;26.56
39954;BME280;25631;51.516;-0.470;2023-04-29T12:32:27;101852.87;;;17.64;26.13
39954;BME280;25631;51.516;-0.470;2023-04-29T12:35:04;101852.95;;;17.78;25.50
39954;BME280;25631;51.516;-0.470;2023-04-29T12:37:40;101853.05;;;18.14;25.61
39954;BME280;25631;51.516;-0.470;2023-04-29T12:40:17;101849.60;;;17.93;25.73
39954;BME280;25631;51.516;-0.470;2023-04-29T12:42:53;101857.06;;;17.97;25.13
39954;BME280;25631;51.516;-0.470;2023-04-29T12:45:31;101857.41;;;18.02;25.82
39954;BME280;25631;51.516;-0.470;2023-04-29T12:48:08;101854.32;;;18.02;25.21
39954;BME280;25631;51.516;-0.470;2023-04-29T12:50:48;101855.69;;;18.24;24.75
39954;BME280;25631;51.516;-0.470;2023-04-29T12:53:25;101851.55;;;18.43;24.77
39954;BME280;25631;51.516;-0.470;2023-04-29T12:56:02;101852.25;;;18.57;24.69
39954;BME280;25631;51.516;-0.470;2023-04-29T12:58:38;101844.35;;;18.31;24.62
39954;BME280;25631;51.516;-0.470;2023-04-29T13:01:15;101841.52;;;18.58;24.02
39954;BME280;25631;51.516;-0.470;2023-04-29T13:03:51;101837.27;;;18.92;24.10
39954;BME280;25631;51.516;-0.470;2023-04-29T13:06:28;101837.51;;;18.66;24.11
39954;BME280;25631;51.516;-0.470;2023-04-29T13:09:05;101837.12;;;18.91;24.49
39954;BME280;25631;51.516;-0.470;2023-04-29T13:11:42;101842.83;;;18.93;23.98
39954;BME280;25631;51.516;-0.470;2023-04-29T13:14:18;101842.16;;;19.06;24.09
39954;BME280;25631;51.516;-0.470;2023-04-29T13:16:54;101839.80;;;19.16;24.42
39954;BME280;25631;51.516;-0.470;2023-04-29T13:19:31;101839.77;;;19.03;23.61
39954;BME280;25631;51.516;-0.470;2023-04-29T13:22:07;101842.02;;;19.22;23.86
39954;BME280;25631;51.516;-0.470;2023-04-29T13:24:43;101842.98;;;19.09;24.17
39954;BME280;25631;51.516;-0.470;2023-04-29T13:27:20;101838.33;;;19.35;24.13
39954;BME280;25631;51.516;-0.470;2023-04-29T13:29:56;101837.99;;;19.51;24.17
39954;BME280;25631;51.516;-0.470;2023-04-29T13:32:33;101842.10;;;19.48;23.61
39954;BME280;25631;51.516;-0.470;2023-04-29T13:35:09;101843.64;;;19.35;23.50
39954;BME280;25631;51.516;-0.470;2023-04-29T13:37:46;101842.73;;;19.52;23.46